sensor_id;sensor_type;location;lat;lon;timestamp;pressure;altitude;pressure_sealevel;temperature;humidity
60437;BME280;46289;51.992;4.498;2023-03-01T00:02:00;103476.38;;;-0.17;87.41
60437;BME280;46289;51.992;4.498;2023-03-01T00:04:09;103476.16;;;-0.22;87.41
60437;BME280;46289;51.992;4.498;2023-03-01T00:06:14;103472.91;;;-0.18;87.61
60437;BME280;46289;51.992;4.498;2023-03-01T00:08:19;103471.88;;;-0.22;87.59
60437;BME280;46289;51.992;4.498;2023-03-01T00:10:24;103471.69;;;-0.26;87.68
60437;BME280;46289;51.992;4.498;2023-03-01T00:12:31;103466.56;;;-0.25;87.80
60437;BME280;46289;51.992;4.498;2023-03-01T00:14:37;103468.28;;;-0.25;87.64
60437;BME280;46289;51.992;4.498;2023-03-01T00:16:44;103457.06;;;-0.26;88.14
60437;BME280;46289;51.992;4.498;2023-03-01T00:18:51;103466.09;;;-0.16;88.34
60437;BME280;46289;51.992;4.498;2023-03-01T00:20:58;103462.50;;;-0.19;88.26
60437;BME280;46289;51.992;4.498;2023-03-01T00:23:03;103452.03;;;-0.23;88.65
60437;BME280;46289;51.992;4.498;2023-03-01T00:25:08;103452.91;;;-0.22;88.33
60437;BME280;46289;51.992;4.498;2023-03-01T00:27:18;103448.41;;;-0.26;88.12
60437;BME280;46289;51.992;4.498;2023-03-01T00:29:24;103456.09;;;-0.28;88.96
60437;BME280;46289;51.992;4.498;2023-03-01T00:31:30;103458.59;;;-0.29;88.91
60437;BME280;46289;51.992;4.498;2023-03-01T00:33:35;103451.38;;;-0.36;88.04
60437;BME280;46289;51.992;4.498;2023-03-01T00:35:40;103455.69;;;-0.37;88.86
60437;BME280;46289;51.992;4.498;2023-03-01T00:37:48;103454.63;;;-0.40;88.54
60437;BME280;46289;51.992;4.498;2023-03-01T00:39:58;103449.09;;;-0.48;88.98
60437;BME280;46289;51.992;4.498;2023-03-01T00:42:03;103452.44;;;-0.51;88.91
60437;BME280;46289;51.992;4.498;2023-03-01T00:44:08;103451.53;;;-0.51;88.82
60437;BME280;46289;51.992;4.498;2023-03-01T00:46:17;103453.84;;;-0.57;88.69
60437;BME280;46289;51.992;4.498;2023-03-01T00:48:28;103452.00;;;-0.60;88.87
60437;BME280;46289;51.992;4.498;2023-03-01T00:50:34;103452.88;;;-0.59;89.00
60437;BME280;46289;51.992;4.498;2023-03-01T00:52:39;103447.34;;;-0.67;89.25
60437;BME280;46289;51.992;4.498;2023-03-01T00:54:47;103447.25;;;-0.69;89.21
60437;BME280;46289;51.992;4.498;2023-03-01T00:56:52;103446.00;;;-0.77;89.02
60437;BME280;46289;51.992;4.498;2023-03-01T00:58:57;103460.47;;;-0.80;89.97
60437;BME280;46289;51.992;4.498;2023-03-01T01:01:07;103451.41;;;-0.90;89.12
60437;BME280;46289;51.992;4.498;2023-03-01T01:03:19;103450.38;;;-0.94;89.01
60437;BME280;46289;51.992;4.498;2023-03-01T01:05:25;103449.91;;;-1.03;89.38
60437;BME280;46289;51.992;4.498;2023-03-01T01:07:33;103449.72;;;-1.07;89.06
60437;BME280;46289;51.992;4.498;2023-03-01T01:09:39;103452.69;;;-1.16;89.88
60437;BME280;46289;51.992;4.498;2023-03-01T01:11:50;103444.81;;;-1.19;89.31
60437;BME280;46289;51.992;4.498;2023-03-01T01:13:58;103446.50;;;-1.20;89.72
60437;BME280;46289;51.992;4.498;2023-03-01T01:16:06;103450.94;;;-1.17;89.92
60437;BME280;46289;51.992;4.498;2023-03-01T01:18:14;103446.50;;;-1.20;89.79
60437;BME280;46289;51.992;4.498;2023-03-01T01:20:19;103442.06;;;-1.22;90.84
60437;BME280;46289;51.992;4.498;2023-03-01T01:22:24;103447.81;;;-1.28;90.32
60437;BME280;46289;51.992;4.498;2023-03-01T01:24:30;103447.53;;;-1.34;90.17
60437;BME280;46289;51.992;4.498;2023-03-01T01:26:35;103445.88;;;-1.32;90.30
60437;BME280;46289;51.992;4.498;2023-03-01T01:28:42;103442.56;;;-1.29;90.48
60437;BME280;46289;51.992;4.498;2023-03-01T01:30:48;103436.47;;;-1.31;90.83
60437;BME280;46289;51.992;4.498;2023-03-01T01:32:53;103429.53;;;-1.33;90.64
60437;BME280;46289;51.992;4.498;2023-03-01T01:34:57;103423.34;;;-1.36;90.94
60437;BME280;46289;51.992;4.498;2023-03-01T01:37:02;103420.75;;;-1.36;90.44
60437;BME280;46289;51.992;4.498;2023-03-01T01:39:10;103411.22;;;-1.37;90.62
60437;BME280;46289;51.992;4.498;2023-03-01T01:41:17;103408.59;;;-1.39;90.88
60437;BME280;46289;51.992;4.498;2023-03-01T01:43:24;103406.97;;;-1.37;90.85
60437;BME280;46289;51.992;4.498;2023-03-01T01:45:35;103402.63;;;-1.38;91.23
60437;BME280;46289;51.992;4.498;2023-03-01T01:47:40;103399.78;;;-1.42;91.40
60437;BME280;46289;51.992;4.498;2023-03-01T01:49:50;103399.75;;;-1.44;90.88
60437;BME280;46289;51.992;4.498;2023-03-01T01:52:01;103391.50;;;-1.37;91.83
60437;BME280;46289;51.992;4.498;2023-03-01T01:54:12;103380.88;;;-1.43;91.44
60437;BME280;46289;51.992;4.498;2023-03-01T01:56:18;103395.31;;;-1.46;91.43
60437;BME280;46289;51.992;4.498;2023-03-01T01:58:25;103384.91;;;-1.48;91.18
60437;BME280;46289;51.992;4.498;2023-03-01T02:00:37;103388.94;;;-1.53;91.53
60437;BME280;46289;51.992;4.498;2023-03-01T02:02:43;103389.19;;;-1.48;92.03
60437;BME280;46289;51.992;4.498;2023-03-01T02:04:52;103388.53;;;-1.44;92.56
60437;BME280;46289;51.992;4.498;2023-03-01T02:07:05;103383.38;;;-1.44;92.05
60437;BME280;46289;51.992;4.498;2023-03-01T02:09:14;103385.88;;;-1.46;92.32
60437;BME280;46289;51.992;4.498;2023-03-01T02:11:20;103397.81;;;-1.48;92.05
60437;BME280;46289;51.992;4.498;2023-03-01T02:13:25;103390.59;;;-1.55;91.77
60437;BME280;46289;51.992;4.498;2023-03-01T02:15:32;103387.19;;;-1.54;92.36
60437;BME280;46289;51.992;4.498;2023-03-01T02:17:40;103390.50;;;-1.57;92.04
60437;BME280;46289;51.992;4.498;2023-03-01T02:19:54;103381.66;;;-1.62;91.54
60437;BME280;46289;51.992;4.498;2023-03-01T02:22:06;103378.19;;;-1.62;91.89
60437;BME280;46289;51.992;4.498;2023-03-01T02:24:23;103372.06;;;-1.64;92.12
60437;BME280;46289;51.992;4.498;2023-03-01T02:26:40;103372.88;;;-1.65;92.62
60437;BME280;46289;51.992;4.498;2023-03-01T02:28:50;103375.31;;;-1.68;92.71
60437;BME280;46289;51.992;4.498;2023-03-01T02:30:55;103374.00;;;-1.77;92.00
60437;BME280;46289;51.992;4.498;2023-03-01T02:33:12;103365.19;;;-1.82;92.45
60437;BME280;46289;51.992;4.498;2023-03-01T02:35:18;103371.69;;;-1.88;92.72
60437;BME280;46289;51.992;4.498;2023-03-01T02:37:24;103367.19;;;-1.92;92.13
60437;BME280;46289;51.992;4.498;2023-03-01T02:39:33;103375.88;;;-1.90;92.95
60437;BME280;46289;51.992;4.498;2023-03-01T02:41:41;103375.72;;;-1.93;92.56
60437;BME280;46289;51.992;4.498;2023-03-01T02:43:50;103370.56;;;-1.93;92.89
60437;BME280;46289;51.992;4.498;2023-03-01T02:45:58;103365.31;;;-1.95;92.77
60437;BME280;46289;51.992;4.498;2023-03-01T02:48:03;103369.75;;;-1.92;93.51
60437;BME280;46289;51.992;4.498;2023-03-01T02:50:21;103364.41;;;-1.97;92.97
60437;BME280;46289;51.992;4.498;2023-03-01T02:52:36;103359.25;;;-1.97;93.10
60437;BME280;46289;51.992;4.498;2023-03-01T02:54:48;103360.84;;;-1.99;93.45
60437;BME280;46289;51.992;4.498;2023-03-01T02:56:55;103354.47;;;-2.06;92.99
60437;BME280;46289;51.992;4.498;2023-03-01T02:59:03;103355.03;;;-2.11;92.74
60437;BME280;46289;51.992;4.498;2023-03-01T03:01:08;103355.63;;;-2.17;93.03
60437;BME280;46289;51.992;4.498;2023-03-01T03:03:16;103351.50;;;-2.13;93.77
60437;BME280;46289;51.992;4.498;2023-03-01T03:05:23;103350.03;;;-2.08;93.74
60437;BME280;46289;51.992;4.498;2023-03-01T03:07:29;103348.59;;;-2.03;93.83
60437;BME280;46289;51.992;4.498;2023-03-01T03:09:34;103346.13;;;-2.02;93.91
60437;BME280;46289;51.992;4.498;2023-03-01T03:11:39;103344.56;;;-1.98;93.69
60437;BME280;46289;51.992;4.498;2023-03-01T03:13:50;103345.28;;;-2.01;93.23
60437;BME280;46289;51.992;4.498;2023-03-01T03:15:58;103345.06;;;-2.05;93.07
60437;BME280;46289;51.992;4.498;2023-03-01T03:18:04;103341.84;;;-2.01;93.81
60437;BME280;46289;51.992;4.498;2023-03-01T03:20:11;103340.97;;;-2.02;93.98
60437;BME280;46289;51.992;4.498;2023-03-01T03:22:20;103338.63;;;-1.97;94.04
60437;BME280;46289;51.992;4.498;2023-03-01T03:24:25;103343.22;;;-1.91;94.47
60437;BME280;46289;51.992;4.498;2023-03-01T03:26:39;103332.56;;;-1.98;94.07
60437;BME280;46289;51.992;4.498;2023-03-01T03:28:44;103339.19;;;-2.03;93.72
60437;BME280;46289;51.992;4.498;2023-03-01T03:30:49;103329.44;;;-2.08;94.17
60437;BME280;46289;51.992;4.498;2023-03-01T03:32:57;103325.00;;;-2.11;94.13
60437;BME280;46289;51.992;4.498;2023-03-01T03:35:03;103326.41;;;-2.17;93.46
60437;BME280;46289;51.992;4.498;2023-03-01T03:37:11;103326.31;;;-2.19;93.87
60437;BME280;46289;51.992;4.498;2023-03-01T03:39:35;103339.91;;;-2.22;94.25
60437;BME280;46289;51.992;4.498;2023-03-01T03:41:40;103332.84;;;-2.26;93.94
60437;BME280;46289;51.992;4.498;2023-03-01T03:43:45;103324.41;;;-2.23;94.53
60437;BME280;46289;51.992;4.498;2023-03-01T03:45:54;103327.03;;;-2.22;94.92
60437;BME280;46289;51.992;4.498;2023-03-01T03:48:03;103328.31;;;-2.30;94.54
60437;BME280;46289;51.992;4.498;2023-03-01T03:50:09;103322.00;;;-2.36;94.33
60437;BME280;46289;51.992;4.498;2023-03-01T03:52:14;103327.69;;;-2.42;94.61
60437;BME280;46289;51.992;4.498;2023-03-01T03:54:19;103338.72;;;-2.45;94.42
60437;BME280;46289;51.992;4.498;2023-03-01T03:56:24;103321.41;;;-2.47;94.45
60437;BME280;46289;51.992;4.498;2023-03-01T03:58:29;103328.06;;;-2.51;94.11
60437;BME280;46289;51.992;4.498;2023-03-01T04:00:36;103327.34;;;-2.48;94.98
60437;BME280;46289;51.992;4.498;2023-03-01T04:02:43;103334.09;;;-2.50;95.22
60437;BME280;46289;51.992;4.498;2023-03-01T04:04:51;103332.19;;;-2.54;95.48
60437;BME280;46289;51.992;4.498;2023-03-01T04:06:56;103323.91;;;-2.65;94.71
60437;BME280;46289;51.992;4.498;2023-03-01T04:09:01;103326.31;;;-2.68;94.48
60437;BME280;46289;51.992;4.498;2023-03-01T04:11:06;103331.19;;;-2.73;94.83
60437;BME280;46289;51.992;4.498;2023-03-01T04:13:24;103325.97;;;-2.74;94.71
60437;BME280;46289;51.992;4.498;2023-03-01T04:15:29;103325.19;;;-2.73;95.08
60437;BME280;46289;51.992;4.498;2023-03-01T04:17:34;103328.47;;;-2.76;94.88
60437;BME280;46289;51.992;4.498;2023-03-01T04:19:41;103329.19;;;-2.78;94.08
60437;BME280;46289;51.992;4.498;2023-03-01T04:21:50;103326.34;;;-2.83;94.18
60437;BME280;46289;51.992;4.498;2023-03-01T04:23:55;103322.03;;;-2.84;94.35
60437;BME280;46289;51.992;4.498;2023-03-01T04:26:00;103328.44;;;-2.92;93.77
60437;BME280;46289;51.992;4.498;2023-03-01T04:28:05;103324.78;;;-2.96;94.38
60437;BME280;46289;51.992;4.498;2023-03-01T04:30:11;103324.88;;;-2.94;94.74
60437;BME280;46289;51.992;4.498;2023-03-01T04:32:17;103325.78;;;-2.94;95.16
60437;BME280;46289;51.992;4.498;2023-03-01T04:34:25;103328.44;;;-2.92;94.71
60437;BME280;46289;51.992;4.498;2023-03-01T04:36:31;103319.19;;;-2.89;94.91
60437;BME280;46289;51.992;4.498;2023-03-01T04:38:42;103317.50;;;-2.72;96.43
60437;BME280;46289;51.992;4.498;2023-03-01T04:40:50;103315.91;;;-2.70;95.80
60437;BME280;46289;51.992;4.498;2023-03-01T04:42:55;103313.59;;;-2.65;95.61
60437;BME280;46289;51.992;4.498;2023-03-01T04:45:00;103311.34;;;-2.59;95.86
60437;BME280;46289;51.992;4.498;2023-03-01T04:47:05;103309.84;;;-2.55;95.58
60437;BME280;46289;51.992;4.498;2023-03-01T04:49:10;103305.63;;;-2.53;95.58
60437;BME280;46289;51.992;4.498;2023-03-01T04:51:15;103303.22;;;-2.50;95.77
60437;BME280;46289;51.992;4.498;2023-03-01T04:53:20;103297.53;;;-2.45;96.01
60437;BME280;46289;51.992;4.498;2023-03-01T04:55:30;103294.13;;;-2.44;95.96
60437;BME280;46289;51.992;4.498;2023-03-01T04:57:35;103289.09;;;-2.42;95.79
60437;BME280;46289;51.992;4.498;2023-03-01T04:59:40;103287.53;;;-2.38;96.02
60437;BME280;46289;51.992;4.498;2023-03-01T05:01:45;103290.22;;;-2.37;96.20
60437;BME280;46289;51.992;4.498;2023-03-01T05:03:51;103287.78;;;-2.34;96.02
60437;BME280;46289;51.992;4.498;2023-03-01T05:05:58;103286.16;;;-2.32;96.10
60437;BME280;46289;51.992;4.498;2023-03-01T05:08:08;103277.78;;;-2.28;96.01
60437;BME280;46289;51.992;4.498;2023-03-01T05:10:19;103275.94;;;-2.30;96.22
60437;BME280;46289;51.992;4.498;2023-03-01T05:12:26;103277.78;;;-2.28;95.81
60437;BME280;46289;51.992;4.498;2023-03-01T05:14:31;103279.41;;;-2.30;96.30
60437;BME280;46289;51.992;4.498;2023-03-01T05:16:36;103284.41;;;-2.33;96.13
60437;BME280;46289;51.992;4.498;2023-03-01T05:18:41;103276.50;;;-2.36;96.03
60437;BME280;46289;51.992;4.498;2023-03-01T05:20:50;103282.47;;;-2.37;95.82
60437;BME280;46289;51.992;4.498;2023-03-01T05:23:00;103277.34;;;-2.37;95.81
60437;BME280;46289;51.992;4.498;2023-03-01T05:25:07;103277.25;;;-2.38;96.21
60437;BME280;46289;51.992;4.498;2023-03-01T05:27:16;103276.22;;;-2.42;95.93
60437;BME280;46289;51.992;4.498;2023-03-01T05:29:27;103274.41;;;-2.43;95.73
60437;BME280;46289;51.992;4.498;2023-03-01T05:31:33;103265.72;;;-2.45;95.68
60437;BME280;46289;51.992;4.498;2023-03-01T05:33:40;103252.63;;;-2.50;95.84
60437;BME280;46289;51.992;4.498;2023-03-01T05:35:45;103252.44;;;-2.53;95.72
60437;BME280;46289;51.992;4.498;2023-03-01T05:37:50;103249.56;;;-2.59;96.10
60437;BME280;46289;51.992;4.498;2023-03-01T05:40:17;103244.16;;;-2.63;96.37
60437;BME280;46289;51.992;4.498;2023-03-01T05:42:22;103242.16;;;-2.69;96.44
60437;BME280;46289;51.992;4.498;2023-03-01T05:44:30;103238.56;;;-2.73;96.71
60437;BME280;46289;51.992;4.498;2023-03-01T05:46:34;103235.00;;;-2.75;96.58
60437;BME280;46289;51.992;4.498;2023-03-01T05:48:39;103232.28;;;-2.78;96.46
60437;BME280;46289;51.992;4.498;2023-03-01T05:50:47;103236.59;;;-2.77;96.47
60437;BME280;46289;51.992;4.498;2023-03-01T05:52:59;103234.69;;;-2.81;95.79
60437;BME280;46289;51.992;4.498;2023-03-01T05:55:06;103242.25;;;-2.84;95.87
60437;BME280;46289;51.992;4.498;2023-03-01T05:57:11;103239.50;;;-2.87;95.81
60437;BME280;46289;51.992;4.498;2023-03-01T05:59:16;103246.13;;;-2.92;95.91
60437;BME280;46289;51.992;4.498;2023-03-01T06:01:24;103235.72;;;-2.94;96.15
60437;BME280;46289;51.992;4.498;2023-03-01T06:03:28;103238.22;;;-2.95;96.33
60437;BME280;46289;51.992;4.498;2023-03-01T06:05:55;103236.44;;;-2.96;96.08
60437;BME280;46289;51.992;4.498;2023-03-01T06:08:00;103234.59;;;-2.99;95.93
60437;BME280;46289;51.992;4.498;2023-03-01T06:10:06;103230.00;;;-3.04;95.89
60437;BME280;46289;51.992;4.498;2023-03-01T06:12:12;103243.66;;;-3.05;96.22
60437;BME280;46289;51.992;4.498;2023-03-01T06:14:16;103239.47;;;-3.03;96.95
60437;BME280;46289;51.992;4.498;2023-03-01T06:16:25;103238.91;;;-3.14;96.04
60437;BME280;46289;51.992;4.498;2023-03-01T06:18:31;103243.06;;;-3.16;96.00
60437;BME280;46289;51.992;4.498;2023-03-01T06:20:35;103242.84;;;-3.21;95.65
60437;BME280;46289;51.992;4.498;2023-03-01T06:22:40;103234.16;;;-3.23;95.82
60437;BME280;46289;51.992;4.498;2023-03-01T06:24:45;103235.75;;;-3.25;95.99
60437;BME280;46289;51.992;4.498;2023-03-01T06:26:52;103244.34;;;-3.24;96.19
60437;BME280;46289;51.992;4.498;2023-03-01T06:28:57;103249.25;;;-3.29;95.70
60437;BME280;46289;51.992;4.498;2023-03-01T06:31:02;103242.66;;;-3.24;96.34
60437;BME280;46289;51.992;4.498;2023-03-01T06:33:13;103245.88;;;-3.28;96.16
60437;BME280;46289;51.992;4.498;2023-03-01T06:35:18;103247.56;;;-3.28;96.20
60437;BME280;46289;51.992;4.498;2023-03-01T06:37:23;103245.63;;;-3.33;95.70
60437;BME280;46289;51.992;4.498;2023-03-01T06:39:28;103249.97;;;-3.32;95.66
60437;BME280;46289;51.992;4.498;2023-03-01T06:41:33;103247.31;;;-3.33;95.72
60437;BME280;46289;51.992;4.498;2023-03-01T06:43:38;103256.78;;;-3.32;95.70
60437;BME280;46289;51.992;4.498;2023-03-01T06:45:43;103257.13;;;-3.26;96.11
60437;BME280;46289;51.992;4.498;2023-03-01T06:47:48;103253.19;;;-3.19;96.74
60437;BME280;46289;51.992;4.498;2023-03-01T06:49:55;103254.47;;;-3.27;96.02
60437;BME280;46289;51.992;4.498;2023-03-01T06:52:00;103243.91;;;-3.32;96.06
60437;BME280;46289;51.992;4.498;2023-03-01T06:54:05;103255.84;;;-3.34;95.70
60437;BME280;46289;51.992;4.498;2023-03-01T06:56:10;103249.06;;;-3.32;95.79
60437;BME280;46289;51.992;4.498;2023-03-01T06:58:16;103260.00;;;-3.36;95.54
60437;BME280;46289;51.992;4.498;2023-03-01T07:00:22;103258.91;;;-3.40;95.39
60437;BME280;46289;51.992;4.498;2023-03-01T07:02:27;103260.16;;;-3.33;95.70
60437;BME280;46289;51.992;4.498;2023-03-01T07:04:32;103255.63;;;-3.37;95.46
60437;BME280;46289;51.992;4.498;2023-03-01T07:06:39;103256.44;;;-3.38;95.27
60437;BME280;46289;51.992;4.498;2023-03-01T07:08:44;103252.28;;;-3.36;95.28
60437;BME280;46289;51.992;4.498;2023-03-01T07:10:54;103250.84;;;-3.31;95.62
60437;BME280;46289;51.992;4.498;2023-03-01T07:12:59;103257.03;;;-3.27;95.97
60437;BME280;46289;51.992;4.498;2023-03-01T07:15:05;103257.91;;;-3.27;95.52
60437;BME280;46289;51.992;4.498;2023-03-01T07:17:11;103256.84;;;-3.16;95.63
60437;BME280;46289;51.992;4.498;2023-03-01T07:19:15;103255.00;;;-3.02;95.93
60437;BME280;46289;51.992;4.498;2023-03-01T07:21:20;103253.63;;;-2.95;95.82
60437;BME280;46289;51.992;4.498;2023-03-01T07:23:28;103258.31;;;-2.88;95.79
60437;BME280;46289;51.992;4.498;2023-03-01T07:25:33;103259.28;;;-2.86;95.45
60437;BME280;46289;51.992;4.498;2023-03-01T07:27:38;103262.84;;;-2.84;95.49
60437;BME280;46289;51.992;4.498;2023-03-01T07:29:43;103259.34;;;-2.84;94.93
60437;BME280;46289;51.992;4.498;2023-03-01T07:31:50;103259.63;;;-2.80;95.13
60437;BME280;46289;51.992;4.498;2023-03-01T07:33:54;103261.56;;;-2.76;95.45
60437;BME280;46289;51.992;4.498;2023-03-01T07:36:01;103260.28;;;-2.68;95.53
60437;BME280;46289;51.992;4.498;2023-03-01T07:38:06;103260.84;;;-2.57;95.63
60437;BME280;46289;51.992;4.498;2023-03-01T07:40:15;103257.28;;;-2.43;95.75
60437;BME280;46289;51.992;4.498;2023-03-01T07:42:19;103259.63;;;-2.31;96.08
60437;BME280;46289;51.992;4.498;2023-03-01T07:44:24;103261.72;;;-2.24;95.92
60437;BME280;46289;51.992;4.498;2023-03-01T07:46:29;103257.25;;;-2.10;95.90
60437;BME280;46289;51.992;4.498;2023-03-01T07:48:34;103258.59;;;-2.00;95.61
60437;BME280;46289;51.992;4.498;2023-03-01T07:50:39;103266.78;;;-1.91;95.44
60437;BME280;46289;51.992;4.498;2023-03-01T07:52:45;103264.50;;;-1.85;95.33
60437;BME280;46289;51.992;4.498;2023-03-01T07:54:52;103265.03;;;-1.74;95.33
60437;BME280;46289;51.992;4.498;2023-03-01T07:56:59;103267.25;;;-1.64;95.04
60437;BME280;46289;51.992;4.498;2023-03-01T07:59:04;103265.13;;;-1.55;95.13
60437;BME280;46289;51.992;4.498;2023-03-01T08:01:11;103265.50;;;-1.47;95.13
60437;BME280;46289;51.992;4.498;2023-03-01T08:03:17;103253.91;;;-1.37;94.90
60437;BME280;46289;51.992;4.498;2023-03-01T08:05:21;103261.06;;;-1.31;94.68
60437;BME280;46289;51.992;4.498;2023-03-01T08:07:28;103260.34;;;-1.29;94.17
60437;BME280;46289;51.992;4.498;2023-03-01T08:09:34;103247.78;;;-1.21;93.99
60437;BME280;46289;51.992;4.498;2023-03-01T08:11:39;103254.84;;;-1.17;93.93
60437;BME280;46289;51.992;4.498;2023-03-01T08:13:47;103251.00;;;-1.07;93.93
60437;BME280;46289;51.992;4.498;2023-03-01T08:15:54;103258.94;;;-1.03;93.83
60437;BME280;46289;51.992;4.498;2023-03-01T08:17:59;103249.94;;;-0.93;93.86
60437;BME280;46289;51.992;4.498;2023-03-01T08:20:05;103253.00;;;-0.82;93.81
60437;BME280;46289;51.992;4.498;2023-03-01T08:22:14;103239.44;;;-0.78;93.48
60437;BME280;46289;51.992;4.498;2023-03-01T08:24:19;103250.16;;;-0.69;93.28
60437;BME280;46289;51.992;4.498;2023-03-01T08:26:24;103246.88;;;-0.46;92.44
60437;BME280;46289;51.992;4.498;2023-03-01T08:28:30;103242.47;;;-0.29;92.26
60437;BME280;46289;51.992;4.498;2023-03-01T08:30:43;103244.00;;;-0.13;91.12
60437;BME280;46289;51.992;4.498;2023-03-01T08:32:47;103247.28;;;0.04;91.02
60437;BME280;46289;51.992;4.498;2023-03-01T08:34:52;103236.06;;;0.25;90.05
60437;BME280;46289;51.992;4.498;2023-03-01T08:36:57;103238.63;;;0.46;88.75
60437;BME280;46289;51.992;4.498;2023-03-01T08:39:02;103233.22;;;0.62;87.95
60437;BME280;46289;51.992;4.498;2023-03-01T08:41:07;103233.88;;;0.79;87.29
60437;BME280;46289;51.992;4.498;2023-03-01T08:43:12;103232.75;;;0.95;86.88
60437;BME280;46289;51.992;4.498;2023-03-01T08:45:17;103225.72;;;1.15;85.94
60437;BME280;46289;51.992;4.498;2023-03-01T08:47:25;103234.28;;;1.36;83.57
60437;BME280;46289;51.992;4.498;2023-03-01T08:49:30;103226.19;;;1.51;82.02
60437;BME280;46289;51.992;4.498;2023-03-01T08:51:39;103229.31;;;1.66;81.95
60437;BME280;46289;51.992;4.498;2023-03-01T08:53:46;103234.19;;;1.83;81.47
60437;BME280;46289;51.992;4.498;2023-03-01T08:55:51;103229.53;;;1.98;79.82
60437;BME280;46289;51.992;4.498;2023-03-01T08:57:56;103233.25;;;2.06;77.75
60437;BME280;46289;51.992;4.498;2023-03-01T09:00:02;103232.56;;;2.12;77.69
60437;BME280;46289;51.992;4.498;2023-03-01T09:02:13;103233.25;;;2.33;77.71
60437;BME280;46289;51.992;4.498;2023-03-01T09:04:21;103232.88;;;2.48;76.84
60437;BME280;46289;51.992;4.498;2023-03-01T09:06:26;103229.84;;;2.63;76.69
60437;BME280;46289;51.992;4.498;2023-03-01T09:08:34;103223.31;;;2.76;73.85
60437;BME280;46289;51.992;4.498;2023-03-01T09:10:38;103220.00;;;2.80;72.96
60437;BME280;46289;51.992;4.498;2023-03-01T09:12:43;103223.16;;;2.98;73.11
60437;BME280;46289;51.992;4.498;2023-03-01T09:14:48;103221.81;;;3.13;74.17
60437;BME280;46289;51.992;4.498;2023-03-01T09:16:53;103216.03;;;3.23;75.54
60437;BME280;46289;51.992;4.498;2023-03-01T09:18:58;103207.44;;;3.25;72.75
60437;BME280;46289;51.992;4.498;2023-03-01T09:21:07;103207.50;;;3.27;71.71
60437;BME280;46289;51.992;4.498;2023-03-01T09:23:12;103204.91;;;3.27;71.00
60437;BME280;46289;51.992;4.498;2023-03-01T09:25:17;103206.22;;;3.44;69.76
60437;BME280;46289;51.992;4.498;2023-03-01T09:27:22;103203.91;;;3.54;69.01
60437;BME280;46289;51.992;4.498;2023-03-01T09:29:28;103202.13;;;3.52;68.25
60437;BME280;46289;51.992;4.498;2023-03-01T09:31:34;103199.06;;;3.67;69.58
60437;BME280;46289;51.992;4.498;2023-03-01T09:33:39;103197.78;;;3.85;67.36
60437;BME280;46289;51.992;4.498;2023-03-01T09:35:45;103193.72;;;3.96;67.90
60437;BME280;46289;51.992;4.498;2023-03-01T09:37:53;103191.38;;;4.07;67.69
60437;BME280;46289;51.992;4.498;2023-03-01T09:39:58;103188.97;;;4.16;68.54
60437;BME280;46289;51.992;4.498;2023-03-01T09:42:03;103187.38;;;4.21;67.50
60437;BME280;46289;51.992;4.498;2023-03-01T09:44:20;103192.22;;;4.44;67.05
60437;BME280;46289;51.992;4.498;2023-03-01T09:46:28;103181.41;;;4.65;66.08
60437;BME280;46289;51.992;4.498;2023-03-01T09:48:40;103191.13;;;4.72;65.47
60437;BME280;46289;51.992;4.498;2023-03-01T09:50:48;103186.41;;;4.54;62.88
60437;BME280;46289;51.992;4.498;2023-03-01T09:53:01;103186.69;;;4.66;62.97
60437;BME280;46289;51.992;4.498;2023-03-01T09:55:14;103179.97;;;4.79;63.44
60437;BME280;46289;51.992;4.498;2023-03-01T09:57:28;103181.16;;;4.93;62.25
60437;BME280;46289;51.992;4.498;2023-03-01T09:59:47;103183.16;;;5.06;62.42
60437;BME280;46289;51.992;4.498;2023-03-01T10:01:58;103184.16;;;5.13;61.30
60437;BME280;46289;51.992;4.498;2023-03-01T10:04:28;103171.97;;;5.12;61.12
60437;BME280;46289;51.992;4.498;2023-03-01T10:06:39;103165.94;;;5.15;59.85
60437;BME280;46289;51.992;4.498;2023-03-01T10:09:05;103170.63;;;5.33;60.85
60437;BME280;46289;51.992;4.498;2023-03-01T10:11:21;103175.81;;;5.30;57.82
60437;BME280;46289;51.992;4.498;2023-03-01T10:13:34;103177.44;;;5.24;57.77
60437;BME280;46289;51.992;4.498;2023-03-01T10:15:44;103174.97;;;5.32;57.65
60437;BME280;46289;51.992;4.498;2023-03-01T10:18:00;103170.94;;;5.48;57.07
60437;BME280;46289;51.992;4.498;2023-03-01T10:20:16;103169.47;;;5.64;57.86
60437;BME280;46289;51.992;4.498;2023-03-01T10:22:24;103172.00;;;5.59;55.75
60437;BME280;46289;51.992;4.498;2023-03-01T10:24:40;103167.66;;;5.60;56.71
60437;BME280;46289;51.992;4.498;2023-03-01T10:26:50;103161.66;;;5.65;55.32
60437;BME280;46289;51.992;4.498;2023-03-01T10:29:02;103145.47;;;5.86;56.40
60437;BME280;46289;51.992;4.498;2023-03-01T10:31:12;103141.09;;;5.82;55.36
60437;BME280;46289;51.992;4.498;2023-03-01T10:33:22;103142.00;;;5.86;54.51
60437;BME280;46289;51.992;4.498;2023-03-01T10:35:29;103139.38;;;5.86;53.95
60437;BME280;46289;51.992;4.498;2023-03-01T10:37:35;103140.63;;;6.06;55.55
60437;BME280;46289;51.992;4.498;2023-03-01T10:40:05;103133.75;;;6.13;53.73
60437;BME280;46289;51.992;4.498;2023-03-01T10:42:20;103138.28;;;6.26;53.63
60437;BME280;46289;51.992;4.498;2023-03-01T10:44:42;103133.84;;;6.21;53.60
60437;BME280;46289;51.992;4.498;2023-03-01T10:47:00;103133.03;;;6.23;52.74
60437;BME280;46289;51.992;4.498;2023-03-01T10:49:16;103131.66;;;5.92;53.11
60437;BME280;46289;51.992;4.498;2023-03-01T10:51:22;103140.66;;;6.09;52.92
60437;BME280;46289;51.992;4.498;2023-03-01T10:53:31;103122.53;;;6.20;52.82
60437;BME280;46289;51.992;4.498;2023-03-01T10:56:00;103126.19;;;6.33;52.95
60437;BME280;46289;51.992;4.498;2023-03-01T10:58:09;103115.91;;;6.44;52.23
60437;BME280;46289;51.992;4.498;2023-03-01T11:00:27;103115.16;;;6.54;53.47
60437;BME280;46289;51.992;4.498;2023-03-01T11:02:35;103122.13;;;6.55;52.73
60437;BME280;46289;51.992;4.498;2023-03-01T11:04:55;103109.06;;;6.55;51.81
60437;BME280;46289;51.992;4.498;2023-03-01T11:07:01;103092.56;;;6.57;51.58
60437;BME280;46289;51.992;4.498;2023-03-01T11:09:14;103111.06;;;6.76;52.38
60437;BME280;46289;51.992;4.498;2023-03-01T11:11:34;103101.50;;;6.75;52.01